createdAt,value
2022-08-16T00:01:09.038Z,53.00
2022-08-16T00:03:13.609Z,52.60
2022-08-16T00:05:17.269Z,52.80
2022-08-16T00:07:19.578Z,53.50
2022-08-16T00:09:22.832Z,53.40
2022-08-16T00:11:24.693Z,52.80
2022-08-16T00:13:28.594Z,53.40
2022-08-16T00:15:52.011Z,53.60
2022-08-16T00:17:57.215Z,53.30
2022-08-16T00:19:59.119Z,53.60
2022-08-16T00:22:03.175Z,53.90
2022-08-16T00:24:12.377Z,54.00
2022-08-16T00:26:35.717Z,53.60
2022-08-16T00:28:36.000Z,53.50
2022-08-16T00:30:38.433Z,53.60
2022-08-16T00:32:42.607Z,53.90
2022-08-16T00:34:53.646Z,53.80
2022-08-16T00:36:56.703Z,54.20
2022-08-16T00:39:00.132Z,54.20
2022-08-16T00:41:05.989Z,54.20
2022-08-16T00:43:11.940Z,54.20
2022-08-16T00:45:25.038Z,54.50
2022-08-16T00:47:27.019Z,54.00
2022-08-16T00:49:37.900Z,53.60
2022-08-16T00:51:45.267Z,54.10
2022-08-16T00:53:47.909Z,53.90
2022-08-16T00:55:51.940Z,53.60
2022-08-16T00:57:59.914Z,54.10
2022-08-16T01:00:04.041Z,54.10
2022-08-16T01:02:30.965Z,54.30
2022-08-16T01:04:30.956Z,54.30
2022-08-16T01:06:48.775Z,54.10
2022-08-16T01:08:53.779Z,54.50
2022-08-16T01:10:59.837Z,54.20
2022-08-16T01:13:05.457Z,54.80
2022-08-16T01:15:07.929Z,55.10
2022-08-16T01:17:10.685Z,54.20
2022-08-16T01:19:18.327Z,54.00
2022-08-16T01:21:33.806Z,54.70
2022-08-16T01:23:58.006Z,55.10
2022-08-16T01:26:34.959Z,54.90
2022-08-16T01:28:25.921Z,54.40
2022-08-16T01:30:34.778Z,54.90
2022-08-16T01:32:44.750Z,55.10
2022-08-16T01:35:06.566Z,54.90
2022-08-16T01:37:09.931Z,55.20
2022-08-16T01:39:13.964Z,54.70
2022-08-16T01:41:19.339Z,55.40
2022-08-16T01:43:23.636Z,55.60
2022-08-16T01:45:39.511Z,55.60
2022-08-16T01:47:49.079Z,55.70
2022-08-16T01:50:42.276Z,55.70
2022-08-16T01:52:29.654Z,55.60
2022-08-16T01:54:51.765Z,55.80
2022-08-16T01:56:56.255Z,55.00
2022-08-16T01:59:00.178Z,55.10
2022-08-16T02:01:02.629Z,55.70
2022-08-16T02:03:04.567Z,55.40
2022-08-16T02:05:06.386Z,55.60
2022-08-16T02:07:08.947Z,55.50
2022-08-16T02:09:14.686Z,55.30
2022-08-16T02:11:19.720Z,55.60
2022-08-16T02:13:22.727Z,56.20
2022-08-16T02:15:31.125Z,55.70
2022-08-16T02:17:40.539Z,55.80
2022-08-16T02:19:58.945Z,56.10
2022-08-16T02:22:08.709Z,55.60
2022-08-16T02:24:31.941Z,56.20
2022-08-16T02:26:34.561Z,56.30
2022-08-16T02:28:37.414Z,56.00
2022-08-16T02:30:51.621Z,55.80
2022-08-16T02:32:54.128Z,55.60
2022-08-16T02:34:57.311Z,55.90
2022-08-16T02:37:00.507Z,56.30
2022-08-16T02:39:04.707Z,56.20
2022-08-16T02:41:09.783Z,55.90
2022-08-16T02:43:13.776Z,55.60
2022-08-16T02:45:18.357Z,55.70
2022-08-16T02:47:25.357Z,55.40
2022-08-16T02:49:59.361Z,55.80
2022-08-16T02:51:51.200Z,56.10
2022-08-16T02:53:53.145Z,56.40
2022-08-16T02:55:56.504Z,56.50
2022-08-16T02:57:58.232Z,56.60
2022-08-16T03:00:01.346Z,56.60
2022-08-16T03:02:32.065Z,56.30
2022-08-16T03:04:50.077Z,55.90
2022-08-16T03:06:56.682Z,56.10
2022-08-16T03:09:15.054Z,56.20
2022-08-16T03:11:22.363Z,56.30
2022-08-16T03:13:24.271Z,56.60
2022-08-16T03:15:27.745Z,56.70
2022-08-16T03:17:32.534Z,56.40
2022-08-16T03:19:48.798Z,56.80
2022-08-16T03:21:59.151Z,56.30
2022-08-16T03:24:01.159Z,56.70
2022-08-16T03:26:02.955Z,56.40
2022-08-16T03:28:06.521Z,56.60
2022-08-16T03:30:18.383Z,56.10
2022-08-16T03:32:26.200Z,56.50
2022-08-16T03:34:29.030Z,56.80
2022-08-16T03:36:32.897Z,56.40
2022-08-16T03:38:39.142Z,56.70
2022-08-16T03:40:47.485Z,56.90
2022-08-16T03:43:18.647Z,56.80
2022-08-16T03:45:14.360Z,56.40
2022-08-16T03:47:19.759Z,56.90
2022-08-16T03:49:24.235Z,57.10
2022-08-16T03:51:40.398Z,57.40
2022-08-16T03:53:43.958Z,57.40
2022-08-16T03:55:51.371Z,57.50
2022-08-16T03:57:55.802Z,57.30
2022-08-16T04:00:00.183Z,57.10
2022-08-16T04:02:04.233Z,56.80
2022-08-16T04:04:30.942Z,56.70
2022-08-16T04:06:34.996Z,57.10
2022-08-16T04:08:39.729Z,57.30
2022-08-16T04:10:41.884Z,57.60
2022-08-16T04:12:53.220Z,57.30
2022-08-16T04:14:58.321Z,57.10
2022-08-16T04:17:00.977Z,57.50
2022-08-16T04:19:12.026Z,57.70
2022-08-16T04:21:13.955Z,57.80
2022-08-16T04:23:31.560Z,57.50
2022-08-16T04:25:34.493Z,57.80
2022-08-16T04:27:36.560Z,57.90
2022-08-16T04:29:46.032Z,57.90
2022-08-16T04:31:56.615Z,58.00
2022-08-16T04:34:03.411Z,57.90
2022-08-16T04:36:06.125Z,57.60
2022-08-16T04:38:10.869Z,57.70
2022-08-16T04:40:25.357Z,57.70
2022-08-16T04:42:29.623Z,57.50
2022-08-16T04:44:53.572Z,57.20
2022-08-16T04:47:02.903Z,57.30
2022-08-16T04:49:17.817Z,57.60
2022-08-16T04:51:20.712Z,58.00
2022-08-16T04:53:23.913Z,57.80
2022-08-16T04:55:37.593Z,57.50
2022-08-16T04:57:41.394Z,57.30
2022-08-16T04:59:43.622Z,58.00
2022-08-16T05:01:58.022Z,57.90
2022-08-16T05:04:01.861Z,58.00
2022-08-16T05:06:23.868Z,57.50
2022-08-16T05:08:47.391Z,57.20
2022-08-16T05:10:58.743Z,57.30
2022-08-16T05:13:03.189Z,57.80
2022-08-16T05:15:05.722Z,58.20
2022-08-16T05:17:12.571Z,58.20
2022-08-16T05:19:16.508Z,58.00
2022-08-16T05:21:38.862Z,58.20
2022-08-16T05:23:55.597Z,58.40
2022-08-16T05:26:00.442Z,58.20
2022-08-16T05:28:03.376Z,57.90
2022-08-16T05:30:35.256Z,57.70
2022-08-16T05:32:34.185Z,57.50
2022-08-16T05:34:40.542Z,58.00
2022-08-16T05:36:44.088Z,57.90
2022-08-16T05:38:46.703Z,57.90
2022-08-16T05:40:57.255Z,57.60
2022-08-16T05:43:03.653Z,58.00
2022-08-16T05:45:07.221Z,57.70
2022-08-16T05:47:15.261Z,57.50
2022-08-16T05:49:22.518Z,57.70
2022-08-16T05:51:39.075Z,57.60
2022-08-16T05:53:42.699Z,57.60
2022-08-16T05:55:48.058Z,57.60
2022-08-16T05:57:52.666Z,57.80
2022-08-16T05:59:59.728Z,57.60
2022-08-16T06:02:03.866Z,57.60
2022-08-16T06:04:13.728Z,57.60
2022-08-16T06:06:32.055Z,57.70
2022-08-16T06:08:41.863Z,57.70
2022-08-16T06:11:09.562Z,58.00
2022-08-16T06:13:08.400Z,57.50
2022-08-16T06:15:14.955Z,57.50
2022-08-16T06:17:19.333Z,57.50
2022-08-16T06:19:23.987Z,57.30
2022-08-16T06:21:36.892Z,57.30
2022-08-16T06:23:39.441Z,57.40
2022-08-16T06:25:52.871Z,57.40
2022-08-16T06:27:57.340Z,57.20
2022-08-16T06:30:00.309Z,57.30
2022-08-16T06:32:02.611Z,57.30
2022-08-16T06:34:55.738Z,57.30
2022-08-16T06:36:29.247Z,57.00
2022-08-16T06:38:52.301Z,57.00
2022-08-16T06:41:05.801Z,57.10
2022-08-16T06:43:07.806Z,56.90
2022-08-16T06:45:15.594Z,56.70
2022-08-16T06:47:24.825Z,56.80
2022-08-16T06:49:52.626Z,56.80
2022-08-16T06:51:55.206Z,56.90
2022-08-16T06:54:09.516Z,56.90
2022-08-16T06:56:23.097Z,56.90
2022-08-16T06:58:42.502Z,57.00
2022-08-16T07:00:49.533Z,57.00
2022-08-16T07:02:56.607Z,57.00
2022-08-16T07:04:58.516Z,57.00
2022-08-16T07:07:00.721Z,56.90
2022-08-16T07:09:02.497Z,56.80
2022-08-16T07:11:12.957Z,56.50
2022-08-16T07:13:37.233Z,56.70
2022-08-16T07:15:50.421Z,56.70
2022-08-16T07:17:56.161Z,56.80
2022-08-16T07:20:03.214Z,56.80
2022-08-16T07:22:37.811Z,56.80
2022-08-16T07:24:48.842Z,56.80
2022-08-16T07:26:51.709Z,56.70
2022-08-16T07:28:53.554Z,56.60
2022-08-16T07:30:56.000Z,56.40
2022-08-16T07:33:07.793Z,56.50
2022-08-16T07:35:11.624Z,56.60
2022-08-16T07:37:16.424Z,56.50
2022-08-16T07:39:43.273Z,56.40
2022-08-16T07:41:45.493Z,56.50
2022-08-16T07:43:48.797Z,56.40
2022-08-16T07:45:53.448Z,56.50
2022-08-16T07:47:55.621Z,56.50
2022-08-16T07:49:58.494Z,56.50
2022-08-16T07:52:01.892Z,56.40
2022-08-16T07:54:32.267Z,56.50
2022-08-16T07:56:42.632Z,56.50
2022-08-16T07:58:45.350Z,56.50
2022-08-16T08:00:50.304Z,56.50
2022-08-16T08:02:52.520Z,56.20
2022-08-16T08:04:58.005Z,56.00
2022-08-16T08:07:02.346Z,56.00
2022-08-16T08:09:11.030Z,56.20
2022-08-16T08:11:13.167Z,56.10
2022-08-16T08:13:20.236Z,56.20
2022-08-16T08:15:52.745Z,56.20
2022-08-16T08:17:55.198Z,56.20
2022-08-16T08:20:26.352Z,56.20
2022-08-16T08:22:30.666Z,56.10
2022-08-16T08:24:39.926Z,55.70
2022-08-16T08:26:50.393Z,55.80
2022-08-16T08:28:53.313Z,55.90
2022-08-16T08:31:03.676Z,55.90
2022-08-16T08:33:09.661Z,55.90
2022-08-16T08:35:16.034Z,55.90
2022-08-16T08:37:20.024Z,55.80
2022-08-16T08:39:22.581Z,55.80
2022-08-16T08:41:28.316Z,55.90
2022-08-16T08:43:30.767Z,56.00
2022-08-16T08:45:46.874Z,56.00
2022-08-16T08:47:54.281Z,55.80
2022-08-16T08:50:01.364Z,55.70
2022-08-16T08:52:08.018Z,55.60
2022-08-16T08:54:11.269Z,55.30
2022-08-16T08:56:23.008Z,55.30
2022-08-16T08:58:34.581Z,55.30
2022-08-16T09:01:04.844Z,55.40
2022-08-16T09:03:11.174Z,55.50
2022-08-16T09:05:16.589Z,55.40
2022-08-16T09:07:22.067Z,55.30
2022-08-16T09:09:26.644Z,55.30
2022-08-16T09:11:41.069Z,55.40
2022-08-16T09:13:47.116Z,55.20
2022-08-16T09:15:51.623Z,55.40
2022-08-16T09:17:55.803Z,55.20
2022-08-16T09:20:04.731Z,55.20
2022-08-16T09:22:07.976Z,55.20
2022-08-16T09:24:46.742Z,55.20
2022-08-16T09:26:46.676Z,55.00
2022-08-16T09:29:15.222Z,55.00
2022-08-16T09:31:12.712Z,55.00
2022-08-16T09:33:19.735Z,55.00
2022-08-16T09:35:22.091Z,55.10
2022-08-16T09:37:29.694Z,55.20
2022-08-16T09:39:42.192Z,55.00
2022-08-16T09:41:53.348Z,55.10
2022-08-16T09:44:00.521Z,55.00
2022-08-16T09:46:44.463Z,55.00
2022-08-16T09:48:36.938Z,54.90
2022-08-16T09:50:46.716Z,54.80
2022-08-16T09:52:48.580Z,54.70
2022-08-16T09:54:50.428Z,54.70
2022-08-16T09:56:53.822Z,54.60
2022-08-16T09:59:05.727Z,54.40
2022-08-16T10:01:11.265Z,54.30
2022-08-16T10:03:13.618Z,54.40
2022-08-16T10:05:16.034Z,54.30
2022-08-16T10:07:18.226Z,54.30
2022-08-16T10:09:20.001Z,54.30
2022-08-16T10:11:50.228Z,54.30
2022-08-16T10:13:52.491Z,54.30
2022-08-16T10:15:59.554Z,54.20
2022-08-16T10:18:53.952Z,54.20
2022-08-16T10:20:25.710Z,54.10
2022-08-16T10:22:28.356Z,54.10
2022-08-16T10:24:30.025Z,53.90
2022-08-16T10:27:19.647Z,53.90
2022-08-16T10:28:55.571Z,53.90
2022-08-16T10:30:59.625Z,53.80
2022-08-16T10:33:01.678Z,53.70
2022-08-16T10:35:04.569Z,53.70
2022-08-16T10:37:07.370Z,53.70
2022-08-16T10:39:09.421Z,53.70
2022-08-16T10:41:11.300Z,53.60
2022-08-16T10:43:18.699Z,53.30
2022-08-16T10:45:20.559Z,53.30
2022-08-16T10:47:22.773Z,53.40
2022-08-16T10:49:25.407Z,53.10
2022-08-16T10:51:34.367Z,53.10
2022-08-16T10:53:54.120Z,52.90
2022-08-16T10:55:59.328Z,52.80
2022-08-16T10:58:11.624Z,52.70
2022-08-16T11:00:21.332Z,52.70
2022-08-16T11:02:57.835Z,52.60
2022-08-16T11:05:06.736Z,52.40
2022-08-16T11:07:43.385Z,52.30
2022-08-16T11:09:31.921Z,52.20
2022-08-16T11:14:11.460Z,52.20
2022-08-16T11:19:03.026Z,52.10
2022-08-16T11:20:58.497Z,51.90
2022-08-16T11:23:01.138Z,51.90
2022-08-16T11:27:35.405Z,51.60
2022-08-16T11:29:38.007Z,51.70
2022-08-16T11:31:39.975Z,51.60
2022-08-16T11:33:55.152Z,51.50
2022-08-16T11:38:47.315Z,51.50
2022-08-16T11:40:52.764Z,51.60
2022-08-16T11:42:54.990Z,51.60
2022-08-16T11:44:57.495Z,51.50
2022-08-16T11:46:59.415Z,51.50
2022-08-16T11:49:03.534Z,51.40
2022-08-16T11:51:05.852Z,51.50
2022-08-16T11:53:08.219Z,51.60
2022-08-16T11:55:11.235Z,51.10
2022-08-16T11:57:14.043Z,51.30
2022-08-16T11:59:16.502Z,51.30
2022-08-16T12:01:29.680Z,51.30
2022-08-16T12:03:45.643Z,51.40
2022-08-16T12:05:51.993Z,50.90
2022-08-16T12:07:56.559Z,50.90
2022-08-16T12:10:04.931Z,50.80
2022-08-16T12:12:07.417Z,50.70
2022-08-16T12:14:10.281Z,50.20
2022-08-16T12:16:12.200Z,50.50
2022-08-16T12:18:20.868Z,50.30
2022-08-16T12:20:26.029Z,50.40
2022-08-16T12:22:36.549Z,50.60
2022-08-16T12:24:38.657Z,50.20
2022-08-16T12:26:40.576Z,50.20
2022-08-16T12:28:54.648Z,50.20
2022-08-16T12:30:57.361Z,50.00
2022-08-16T12:32:59.776Z,49.60
2022-08-16T12:35:06.655Z,50.10
2022-08-16T12:37:11.735Z,49.60
2022-08-16T12:39:13.592Z,49.40
2022-08-16T12:41:15.726Z,49.40
2022-08-16T12:43:27.039Z,49.70
2022-08-16T12:45:35.688Z,49.40
2022-08-16T12:48:22.190Z,49.20
2022-08-16T12:50:19.927Z,49.50
2022-08-16T12:52:32.728Z,49.00
2022-08-16T12:54:37.319Z,49.00
2022-08-16T12:56:41.616Z,48.80
2022-08-16T12:58:49.182Z,48.80
2022-08-16T13:00:51.867Z,48.90
2022-08-16T13:02:54.492Z,48.70
2022-08-16T13:04:56.215Z,49.00
2022-08-16T13:06:59.064Z,48.90
2022-08-16T13:09:15.008Z,48.70
2022-08-16T13:11:20.404Z,48.20
2022-08-16T13:13:25.917Z,47.90
2022-08-16T13:15:28.591Z,48.00
2022-08-16T13:17:30.349Z,48.10
2022-08-16T13:19:55.923Z,48.10
2022-08-16T13:21:53.748Z,48.30
2022-08-16T13:23:55.944Z,48.00
2022-08-16T13:25:58.357Z,47.60
2022-08-16T13:28:04.013Z,47.50
2022-08-16T13:30:21.769Z,47.30
2022-08-16T13:32:39.702Z,47.50
2022-08-16T13:34:42.504Z,47.20
2022-08-16T13:36:51.663Z,47.50
2022-08-16T13:38:57.514Z,47.80
2022-08-16T13:41:00.130Z,47.60
2022-08-16T13:43:02.729Z,47.50
2022-08-16T13:45:05.777Z,47.80
2022-08-16T13:47:10.634Z,47.40
2022-08-16T13:49:12.297Z,47.40
2022-08-16T13:51:17.406Z,47.60
2022-08-16T13:53:24.386Z,47.70
2022-08-16T13:55:26.802Z,47.50
2022-08-16T13:58:34.194Z,48.10
2022-08-16T13:59:52.646Z,47.20
2022-08-16T14:02:02.518Z,47.20
2022-08-16T14:04:05.294Z,46.80
2022-08-16T14:06:10.776Z,47.00
2022-08-16T14:08:12.723Z,46.80
2022-08-16T14:10:16.279Z,46.90
2022-08-16T14:12:20.147Z,46.70
2022-08-16T14:14:29.098Z,46.80
2022-08-16T14:16:33.597Z,46.80
2022-08-16T14:18:36.074Z,46.80
2022-08-16T14:20:38.667Z,47.10
2022-08-16T14:22:42.492Z,45.20
2022-08-16T14:24:50.111Z,46.40
2022-08-16T14:26:52.730Z,46.00
2022-08-16T14:28:55.111Z,46.00
2022-08-16T14:31:03.150Z,45.90
2022-08-16T14:33:05.380Z,45.90
2022-08-16T14:35:11.155Z,45.90
2022-08-16T14:37:13.170Z,45.60
2022-08-16T14:39:15.205Z,45.90
2022-08-16T14:41:17.971Z,45.60
2022-08-16T14:43:19.784Z,45.40
2022-08-16T14:45:24.075Z,45.40
2022-08-16T14:47:25.747Z,45.10
2022-08-16T14:49:36.208Z,44.60
2022-08-16T14:51:46.035Z,45.00
2022-08-16T14:53:49.737Z,45.30
2022-08-16T14:55:55.034Z,45.10
2022-08-16T14:57:57.720Z,44.90
2022-08-16T15:00:05.805Z,44.90
2022-08-16T15:02:13.931Z,44.70
2022-08-16T15:04:40.567Z,44.40
2022-08-16T15:06:47.806Z,44.50
2022-08-16T15:08:49.472Z,44.40
2022-08-16T15:10:52.799Z,44.10
2022-08-16T15:12:56.345Z,43.20
2022-08-16T15:14:59.754Z,43.80
2022-08-16T15:17:02.140Z,44.00
2022-08-16T15:19:05.519Z,43.60
2022-08-16T15:21:08.678Z,43.40
2022-08-16T15:23:10.855Z,43.90
2022-08-16T15:25:33.023Z,43.60
2022-08-16T15:27:36.834Z,43.80
2022-08-16T15:29:38.597Z,43.90
2022-08-16T15:31:41.461Z,43.60
2022-08-16T15:33:50.112Z,43.80
2022-08-16T15:35:55.350Z,43.40
2022-08-16T15:38:00.105Z,43.50
2022-08-16T15:40:02.465Z,43.30
2022-08-16T15:42:06.617Z,42.90
2022-08-16T15:44:22.232Z,43.10
2022-08-16T15:46:54.064Z,42.70
2022-08-16T15:48:46.227Z,41.80
2022-08-16T15:50:48.495Z,42.70
2022-08-16T15:52:54.898Z,42.60
2022-08-16T15:55:13.073Z,42.60
2022-08-16T15:57:26.495Z,42.00
2022-08-16T15:59:28.616Z,41.90
2022-08-16T16:01:36.625Z,41.70
2022-08-16T16:03:38.372Z,41.10
2022-08-16T16:05:41.160Z,41.30
2022-08-16T16:07:55.719Z,41.20
2022-08-16T16:09:59.563Z,41.80
2022-08-16T16:12:01.462Z,41.10
2022-08-16T16:14:03.167Z,41.10
2022-08-16T16:16:16.545Z,41.50
2022-08-16T16:18:22.113Z,41.20
2022-08-16T16:20:27.603Z,41.30
2022-08-16T16:22:29.971Z,41.60
2022-08-16T16:24:31.680Z,41.00
2022-08-16T16:26:37.938Z,41.10
2022-08-16T16:29:06.612Z,40.90
2022-08-16T16:31:02.356Z,40.60
2022-08-16T16:33:04.096Z,40.50
2022-08-16T16:35:07.212Z,40.70
2022-08-16T16:37:10.138Z,40.50
2022-08-16T16:39:12.055Z,40.20
2022-08-16T16:41:15.080Z,40.20
2022-08-16T16:43:16.982Z,40.10
2022-08-16T16:45:20.098Z,40.10
2022-08-16T16:47:21.814Z,40.00
2022-08-16T16:49:23.507Z,40.00
2022-08-16T16:51:28.468Z,40.10
2022-08-16T16:53:31.871Z,40.40
2022-08-16T16:55:40.048Z,40.50
2022-08-16T16:58:00.613Z,40.20
2022-08-16T17:00:25.796Z,40.40
2022-08-16T17:02:41.015Z,40.40
2022-08-16T17:04:50.018Z,40.30
2022-08-16T17:06:53.399Z,40.40
2022-08-16T17:08:58.770Z,40.40
2022-08-16T17:11:00.719Z,40.30
2022-08-16T17:13:05.462Z,40.30
2022-08-16T17:15:08.713Z,40.40
2022-08-16T17:17:11.614Z,40.60
2022-08-16T17:19:21.817Z,40.80
2022-08-16T17:21:25.769Z,40.80
2022-08-16T17:23:59.135Z,40.90
2022-08-16T17:25:52.218Z,40.90
2022-08-16T17:27:54.136Z,41.00
2022-08-16T17:29:58.408Z,41.00
2022-08-16T17:32:32.519Z,41.20
2022-08-16T17:34:28.913Z,41.30
2022-08-16T17:36:36.648Z,41.40
2022-08-16T17:38:44.721Z,41.50
2022-08-16T17:40:55.386Z,41.60
2022-08-16T17:43:01.222Z,41.70
2022-08-16T17:45:03.744Z,41.80
2022-08-16T17:47:05.552Z,41.90
2022-08-16T17:49:07.606Z,42.00
2022-08-16T17:51:09.354Z,42.00
2022-08-16T17:53:11.836Z,42.10
2022-08-16T17:55:17.738Z,42.20
2022-08-16T17:57:19.416Z,42.20
2022-08-16T17:59:22.839Z,42.30
2022-08-16T18:01:26.466Z,42.40
2022-08-16T18:04:02.538Z,42.50
2022-08-16T18:06:02.098Z,42.60
2022-08-16T18:08:03.972Z,42.80
2022-08-16T18:10:12.244Z,42.80
2022-08-16T18:12:17.089Z,42.80
2022-08-16T18:14:51.413Z,42.80
2022-08-16T18:16:54.676Z,42.90
2022-08-16T18:18:56.872Z,42.90
2022-08-16T18:21:17.400Z,43.10
2022-08-16T18:23:21.852Z,43.10
2022-08-16T18:25:23.859Z,43.20
2022-08-16T18:27:27.304Z,43.30
2022-08-16T18:29:29.302Z,43.40
2022-08-16T18:31:31.516Z,43.50
2022-08-16T18:33:41.332Z,43.50
2022-08-16T18:35:46.027Z,43.50
2022-08-16T18:37:48.141Z,43.60
2022-08-16T18:39:50.112Z,43.70
2022-08-16T18:41:52.169Z,43.70
2022-08-16T18:44:00.899Z,43.80
2022-08-16T18:46:15.843Z,44.00
2022-08-16T18:48:17.925Z,44.00
2022-08-16T18:50:21.550Z,44.10
2022-08-16T18:52:25.603Z,44.20
2022-08-16T18:54:28.640Z,44.20
2022-08-16T18:56:56.930Z,44.30
2022-08-16T18:58:52.912Z,44.30
2022-08-16T19:00:56.601Z,44.40
2022-08-16T19:03:08.082Z,44.40
2022-08-16T19:05:12.816Z,44.50
2022-08-16T19:07:14.616Z,44.60
2022-08-16T19:09:16.420Z,44.50
2022-08-16T19:11:21.676Z,44.60
2022-08-16T19:13:24.738Z,44.60
2022-08-16T19:15:27.852Z,44.70
2022-08-16T19:17:29.591Z,44.80
2022-08-16T19:19:31.325Z,45.00
2022-08-16T19:21:33.119Z,45.00
2022-08-16T19:23:37.287Z,45.00
2022-08-16T19:25:48.467Z,45.10
2022-08-16T19:27:52.006Z,45.20
2022-08-16T19:29:54.127Z,45.30
2022-08-16T19:31:55.876Z,45.20
2022-08-16T19:33:58.096Z,45.30
2022-08-16T19:36:00.259Z,45.30
2022-08-16T19:38:02.052Z,45.40
2022-08-16T19:40:05.298Z,45.50
2022-08-16T19:42:28.434Z,45.50
2022-08-16T19:44:30.238Z,45.60
2022-08-16T19:46:32.454Z,45.70
2022-08-16T19:48:34.140Z,45.70
2022-08-16T19:50:36.461Z,45.70
2022-08-16T19:52:39.004Z,45.60
2022-08-16T19:54:41.160Z,45.70
2022-08-16T19:56:42.940Z,45.70
2022-08-16T19:59:15.890Z,45.80
2022-08-16T20:01:06.682Z,45.80
2022-08-16T20:03:13.454Z,45.80
2022-08-16T20:05:16.537Z,45.90
2022-08-16T20:07:18.807Z,45.90
2022-08-16T20:09:23.620Z,45.90
2022-08-16T20:11:25.812Z,46.00
2022-08-16T20:13:28.266Z,46.00
2022-08-16T20:15:31.133Z,46.10
2022-08-16T20:17:32.884Z,46.10
2022-08-16T20:19:39.971Z,46.20
2022-08-16T20:21:42.013Z,46.40
2022-08-16T20:23:43.693Z,46.30
2022-08-16T20:25:49.911Z,46.30
2022-08-16T20:27:52.052Z,46.40
2022-08-16T20:29:54.068Z,46.40
2022-08-16T20:31:56.024Z,46.40
2022-08-16T20:33:57.719Z,46.50
2022-08-16T20:35:59.460Z,46.60
2022-08-16T20:38:03.875Z,46.60
2022-08-16T20:40:28.496Z,46.60
2022-08-16T20:42:31.293Z,46.70
2022-08-16T20:44:32.973Z,46.70
2022-08-16T20:46:34.663Z,46.70
2022-08-16T20:48:41.861Z,46.80
2022-08-16T20:50:44.022Z,46.80
2022-08-16T20:52:46.388Z,46.80
2022-08-16T20:54:48.583Z,47.50
2022-08-16T20:56:50.350Z,47.10
2022-08-16T20:58:52.153Z,46.90
2022-08-16T21:00:53.873Z,47.00
2022-08-16T21:02:55.643Z,47.00
2022-08-16T21:04:57.363Z,47.00
2022-08-16T21:07:01.345Z,47.00
2022-08-16T21:09:04.698Z,47.10
2022-08-16T21:11:07.107Z,46.90
2022-08-16T21:13:09.500Z,47.10
2022-08-16T21:15:11.511Z,47.00
2022-08-16T21:17:16.005Z,47.20
2022-08-16T21:19:18.200Z,47.20
2022-08-16T21:21:19.964Z,47.30
2022-08-16T21:23:24.993Z,47.10
2022-08-16T21:25:26.744Z,47.10
2022-08-16T21:27:28.467Z,47.20
2022-08-16T21:29:42.897Z,47.80
2022-08-16T21:31:45.140Z,47.30
2022-08-16T21:33:47.496Z,47.40
2022-08-16T21:35:57.322Z,47.50
2022-08-16T21:38:29.614Z,47.50
2022-08-16T21:40:20.830Z,47.60
2022-08-16T21:42:22.481Z,47.40
2022-08-16T21:44:24.215Z,47.60
2022-08-16T21:46:36.088Z,47.60
2022-08-16T21:48:40.683Z,47.50
2022-08-16T21:50:43.522Z,47.50
2022-08-16T21:52:45.257Z,47.70
2022-08-16T21:54:47.026Z,47.70
2022-08-16T21:56:48.759Z,47.70
2022-08-16T21:58:53.219Z,47.80
2022-08-16T22:00:55.683Z,47.80
2022-08-16T22:02:59.223Z,47.80
2022-08-16T22:05:01.354Z,47.80
2022-08-16T22:07:03.185Z,47.80
2022-08-16T22:09:06.494Z,47.90
2022-08-16T22:11:09.398Z,47.80
2022-08-16T22:13:22.975Z,47.90
2022-08-16T22:15:25.638Z,47.90
2022-08-16T22:17:27.605Z,47.90
2022-08-16T22:19:29.939Z,48.00
2022-08-16T22:21:32.256Z,47.90
2022-08-16T22:23:36.157Z,47.90
2022-08-16T22:25:38.364Z,47.90
2022-08-16T22:27:40.478Z,47.90
2022-08-16T22:29:43.987Z,48.00
2022-08-16T22:31:45.686Z,48.00
2022-08-16T22:33:47.379Z,48.10
2022-08-16T22:36:00.156Z,47.90
2022-08-16T22:38:55.038Z,48.00
2022-08-16T22:40:23.485Z,48.00
2022-08-16T22:42:25.268Z,48.00
2022-08-16T22:44:27.367Z,48.00
2022-08-16T22:46:30.186Z,48.20
2022-08-16T22:48:31.855Z,48.10
2022-08-16T22:50:41.517Z,48.00
2022-08-16T22:53:04.855Z,48.20
2022-08-16T22:55:06.696Z,48.30
2022-08-16T22:57:09.231Z,48.10
2022-08-16T22:59:11.731Z,48.30
2022-08-16T23:01:14.019Z,48.40
2022-08-16T23:03:17.665Z,48.30
2022-08-16T23:05:19.337Z,48.20
2022-08-16T23:07:20.991Z,48.30
2022-08-16T23:09:22.772Z,48.40
2022-08-16T23:11:25.066Z,48.50
2022-08-16T23:13:27.149Z,48.40
2022-08-16T23:15:30.222Z,48.30
2022-08-16T23:17:34.037Z,48.30
2022-08-16T23:19:35.709Z,48.30
2022-08-16T23:21:38.229Z,48.50
2022-08-16T23:23:40.458Z,48.60
2022-08-16T23:25:44.648Z,48.60
2022-08-16T23:27:49.801Z,48.40
2022-08-16T23:29:52.565Z,48.60
2022-08-16T23:31:55.906Z,48.70
2022-08-16T23:33:57.737Z,48.70
2022-08-16T23:36:00.928Z,48.60
2022-08-16T23:38:03.037Z,48.80
2022-08-16T23:40:06.279Z,48.70
2022-08-16T23:42:52.214Z,48.70
2022-08-16T23:44:56.047Z,48.70
2022-08-16T23:47:00.549Z,48.80
2022-08-16T23:49:57.380Z,48.80
2022-08-16T23:51:23.925Z,48.70
2022-08-16T23:53:27.199Z,48.80
2022-08-16T23:55:29.927Z,48.90
2022-08-16T23:57:31.612Z,49.00
2022-08-16T23:59:41.965Z,48.90
